createdAt,value
2018-02-10T00:02:23.805Z,67.70
2018-02-10T00:04:49.998Z,70.07
2018-02-10T00:07:16.165Z,54.17
2018-02-10T00:09:42.341Z,61.35
2018-02-10T00:12:08.523Z,54.58
2018-02-10T00:14:34.699Z,70.07
2018-02-10T00:17:00.873Z,56.17
2018-02-10T00:19:27.220Z,66.82
2018-02-10T00:21:53.380Z,66.12
2018-02-10T00:24:20.346Z,59.33
2018-02-10T00:26:46.620Z,67.68
2018-02-10T00:29:12.838Z,63.47
2018-02-10T00:31:39.013Z,67.43
2018-02-10T00:34:05.965Z,73.72
2018-02-10T00:36:32.146Z,66.62
2018-02-10T00:38:58.343Z,71.07
2018-02-10T00:41:24.504Z,66.45
2018-02-10T00:43:50.701Z,65.70
2018-02-10T00:46:16.874Z,74.62
2018-02-10T00:48:43.089Z,72.00
2018-02-10T00:51:10.061Z,71.72
2018-02-10T00:53:36.955Z,67.22
2018-02-10T00:56:04.134Z,73.37
2018-02-10T00:58:30.296Z,70.93
2018-02-10T01:00:57.262Z,62.70
2018-02-10T01:03:23.417Z,59.40
2018-02-10T01:05:49.657Z,63.85
2018-02-10T01:08:16.542Z,64.62
2018-02-10T01:10:43.098Z,69.05
2018-02-10T01:13:09.651Z,76.87
2018-02-10T01:15:35.822Z,67.47
2018-02-10T01:18:02.013Z,64.93
2018-02-10T01:20:28.179Z,71.00
2018-02-10T01:22:54.345Z,69.30
2018-02-10T01:25:20.551Z,67.50
2018-02-10T01:27:47.487Z,78.03
2018-02-10T01:30:14.427Z,72.57
2018-02-10T01:32:41.355Z,65.50
2018-02-10T01:35:07.551Z,71.07
2018-02-10T01:37:33.769Z,75.20
2018-02-10T01:40:00.744Z,68.32
2018-02-10T01:42:27.654Z,77.40
2018-02-10T01:44:54.162Z,68.07
2018-02-10T01:47:20.740Z,68.87
2018-02-10T01:49:46.940Z,60.65
2018-02-10T01:52:13.901Z,70.53
2018-02-10T01:54:40.070Z,64.40
2018-02-10T01:57:06.301Z,57.10
2018-02-10T01:59:32.524Z,65.35
2018-02-10T02:01:58.677Z,60.55
2018-02-10T02:04:24.968Z,76.45
2018-02-10T02:06:51.014Z,76.40
2018-02-10T02:09:17.190Z,62.83
2018-02-10T02:11:43.361Z,67.80
2018-02-10T02:14:09.511Z,74.55
2018-02-10T02:16:36.423Z,60.78
2018-02-10T02:19:02.642Z,69.15
2018-02-10T02:21:28.814Z,75.62
2018-02-10T02:23:54.961Z,58.80
2018-02-10T02:26:21.861Z,65.87
2018-02-10T02:28:48.060Z,67.32
2018-02-10T02:31:14.257Z,62.15
2018-02-10T02:33:41.202Z,62.22
2018-02-10T02:36:08.146Z,73.75
2018-02-10T02:38:35.104Z,68.37
2018-02-10T02:41:02.038Z,66.03
2018-02-10T02:43:29.014Z,74.37
2018-02-10T02:45:55.171Z,67.90
2018-02-10T02:48:21.323Z,74.15
2018-02-10T02:50:47.527Z,79.10
2018-02-10T02:53:13.674Z,67.82
2018-02-10T02:55:39.837Z,70.57
2018-02-10T02:58:06.762Z,67.37
2018-02-10T03:00:32.911Z,59.88
2018-02-10T03:02:59.842Z,72.87
2018-02-10T03:05:26.766Z,67.65
2018-02-10T03:07:52.909Z,66.70
2018-02-10T03:10:19.074Z,73.90
2018-02-10T03:12:45.261Z,59.75
2018-02-10T03:15:11.442Z,66.60
2018-02-10T03:17:37.574Z,62.85
2018-02-10T03:20:03.742Z,61.58
2018-02-10T03:22:30.659Z,75.40
2018-02-10T03:24:56.876Z,70.55
2018-02-10T03:27:23.038Z,72.40
2018-02-10T03:29:49.198Z,78.55
2018-02-10T03:32:15.362Z,67.12
2018-02-10T03:34:41.511Z,56.05
2018-02-10T03:37:07.709Z,67.55
2018-02-10T03:39:33.916Z,68.75
2018-02-10T03:42:00.151Z,69.95
2018-02-10T03:44:26.304Z,70.55
2018-02-10T03:46:52.461Z,66.07
2018-02-10T03:49:18.623Z,67.28
2018-02-10T03:51:44.818Z,62.85
2018-02-10T03:54:11.702Z,78.18
2018-02-10T03:56:37.921Z,64.72
2018-02-10T03:59:04.058Z,74.90
2018-02-10T04:01:30.226Z,66.95
2018-02-10T04:03:56.422Z,66.93
2018-02-10T04:06:22.614Z,70.50
2018-02-10T04:08:49.578Z,72.57
2018-02-10T04:11:15.749Z,64.50
2018-02-10T04:13:41.901Z,75.30
2018-02-10T04:16:08.058Z,76.70
2018-02-10T04:18:34.941Z,69.65
2018-02-10T04:21:01.082Z,77.55
2018-02-10T04:23:27.301Z,66.25
2018-02-10T04:25:53.800Z,74.87
2018-02-10T04:28:20.001Z,82.18
2018-02-10T04:30:46.870Z,77.95
2018-02-10T04:33:13.009Z,54.47
2018-02-10T04:35:39.292Z,75.05
2018-02-10T04:38:05.907Z,70.95
2018-02-10T04:40:32.114Z,78.47
2018-02-10T04:42:58.283Z,79.95
2018-02-10T04:45:24.527Z,65.43
2018-02-10T04:47:50.718Z,74.18
2018-02-10T04:50:16.890Z,81.85
2018-02-10T04:52:43.822Z,70.47
2018-02-10T04:55:09.994Z,62.60
2018-02-10T04:57:36.166Z,65.53
2018-02-10T05:00:02.377Z,71.62
2018-02-10T05:02:28.554Z,69.60
2018-02-10T05:04:55.462Z,69.47
2018-02-10T05:07:21.654Z,69.70
2018-02-10T05:09:48.949Z,78.43
2018-02-10T05:12:15.161Z,71.00
2018-02-10T05:14:41.309Z,66.12
2018-02-10T05:17:07.523Z,71.87
2018-02-10T05:19:33.680Z,76.43
2018-02-10T05:22:00.598Z,68.47
2018-02-10T05:24:26.749Z,67.18
2018-02-10T05:26:52.925Z,71.80
2018-02-10T05:29:19.074Z,71.50
2018-02-10T05:31:45.242Z,78.70
2018-02-10T05:34:12.143Z,76.03
2018-02-10T05:36:38.302Z,84.10
2018-02-10T05:39:04.514Z,72.15
2018-02-10T05:41:30.696Z,71.18
2018-02-10T05:43:56.873Z,72.28
2018-02-10T05:46:23.041Z,70.12
2018-02-10T05:48:49.234Z,69.22
2018-02-10T05:51:15.469Z,77.60
2018-02-10T05:53:42.381Z,75.05
2018-02-10T05:56:08.592Z,85.85
2018-02-10T05:58:34.748Z,70.32
2018-02-10T06:01:00.954Z,71.22
2018-02-10T06:03:27.167Z,74.97
2018-02-10T06:05:53.323Z,76.45
2018-02-10T06:08:19.501Z,63.35
2018-02-10T06:10:46.495Z,88.90
2018-02-10T06:13:12.666Z,66.18
2018-02-10T06:15:39.590Z,71.75
2018-02-10T06:18:05.774Z,78.85
2018-02-10T06:20:31.954Z,76.35
2018-02-10T06:22:58.107Z,67.65
2018-02-10T06:25:25.293Z,70.85
2018-02-10T06:27:51.476Z,86.00
2018-02-10T06:30:18.387Z,68.12
2018-02-10T06:32:44.586Z,73.60
2018-02-10T06:35:10.778Z,72.57
2018-02-10T06:37:37.711Z,75.75
2018-02-10T06:40:03.920Z,74.55
2018-02-10T06:42:30.099Z,77.87
2018-02-10T06:44:57.070Z,82.72
2018-02-10T06:47:23.229Z,80.57
2018-02-10T06:49:49.443Z,80.53
2018-02-10T06:52:15.653Z,71.80
2018-02-10T06:54:41.846Z,85.45
2018-02-10T06:57:08.774Z,66.95
2018-02-10T06:59:35.721Z,87.95
2018-02-10T07:02:01.919Z,86.55
2018-02-10T07:04:28.141Z,84.40
2018-02-10T07:06:54.317Z,78.00
2018-02-10T07:09:20.517Z,72.15
2018-02-10T07:11:46.703Z,67.28
2018-02-10T07:14:12.967Z,74.05
2018-02-10T07:16:39.143Z,75.55
2018-02-10T07:19:06.083Z,72.68
2018-02-10T07:21:33.025Z,75.72
2018-02-10T07:23:59.947Z,71.78
2018-02-10T07:26:26.300Z,86.00
2018-02-10T07:28:52.467Z,79.82
2018-02-10T07:31:18.619Z,72.00
2018-02-10T07:33:44.842Z,73.75
2018-02-10T07:36:11.059Z,79.82
2018-02-10T07:38:37.276Z,68.18
2018-02-10T07:41:03.482Z,71.68
2018-02-10T07:43:30.413Z,65.82
2018-02-10T07:45:57.336Z,66.57
2018-02-10T07:48:23.690Z,66.97
2018-02-10T07:50:50.637Z,67.62
2018-02-10T07:53:16.830Z,75.35
2018-02-10T07:55:43.018Z,76.32
2018-02-10T07:58:09.352Z,81.22
2018-02-10T08:00:35.642Z,86.57
2018-02-10T08:03:01.848Z,75.55
2018-02-10T08:05:28.033Z,72.15
2018-02-10T08:07:54.209Z,75.30
2018-02-10T08:10:20.442Z,65.78
2018-02-10T08:12:46.660Z,75.20
2018-02-10T08:15:12.989Z,69.75
2018-02-10T08:17:39.161Z,63.42
2018-02-10T08:20:06.103Z,70.80
2018-02-10T08:22:32.270Z,62.67
2018-02-10T08:24:58.458Z,70.90
2018-02-10T08:27:24.657Z,68.20
2018-02-10T08:29:50.862Z,66.45
2018-02-10T08:32:17.043Z,71.62
2018-02-10T08:34:43.979Z,64.60
2018-02-10T08:37:10.231Z,67.62
2018-02-10T08:39:36.370Z,65.15
2018-02-10T08:42:02.737Z,64.70
2018-02-10T08:44:29.082Z,65.00
2018-02-10T08:46:55.313Z,67.75
2018-02-10T08:49:21.562Z,61.83
2018-02-10T08:51:47.729Z,55.15
2018-02-10T08:54:14.086Z,66.53
2018-02-10T08:56:40.306Z,57.30
2018-02-10T08:59:06.498Z,64.90
2018-02-10T09:01:33.457Z,60.55
2018-02-10T09:03:59.601Z,55.78
2018-02-10T09:06:25.863Z,54.30
2018-02-10T09:08:52.015Z,61.53
2018-02-10T09:11:19.935Z,56.25
2018-02-10T09:13:46.837Z,58.20
2018-02-10T09:16:13.789Z,56.83
2018-02-10T09:18:40.718Z,65.07
2018-02-10T09:21:07.630Z,55.78
2018-02-10T09:23:33.841Z,49.40
2018-02-10T09:26:00.087Z,52.62
2018-02-10T09:28:26.249Z,48.93
2018-02-10T09:30:52.395Z,48.53
2018-02-10T09:33:19.313Z,44.60
2018-02-10T09:35:45.546Z,50.92
2018-02-10T09:38:11.741Z,54.33
2018-02-10T09:40:37.942Z,52.67
2018-02-10T09:43:04.116Z,47.00
2018-02-10T09:45:30.298Z,50.83
2018-02-10T09:47:56.941Z,45.23
2018-02-10T09:50:23.230Z,43.80
2018-02-10T09:52:49.397Z,47.70
2018-02-10T09:55:15.694Z,43.53
2018-02-10T09:57:42.573Z,52.27
2018-02-10T10:00:08.834Z,50.63
2018-02-10T10:02:35.023Z,43.93
2018-02-10T10:05:01.187Z,45.43
2018-02-10T10:07:27.367Z,41.40
2018-02-10T10:09:53.551Z,44.35
2018-02-10T10:12:19.769Z,37.47
2018-02-10T10:14:46.303Z,44.80
2018-02-10T10:17:12.453Z,42.70
2018-02-10T10:19:38.674Z,46.60
2018-02-10T10:22:04.872Z,44.17
2018-02-10T10:24:31.071Z,43.50
2018-02-10T10:26:58.064Z,40.43
2018-02-10T10:29:24.266Z,39.23
2018-02-10T10:31:50.433Z,39.60
2018-02-10T10:34:16.665Z,39.70
2018-02-10T10:36:42.859Z,39.07
2018-02-10T10:39:09.083Z,36.40
2018-02-10T10:41:35.233Z,38.50
2018-02-10T10:44:01.408Z,37.97
2018-02-10T10:46:28.318Z,43.22
2018-02-10T10:48:54.521Z,39.30
2018-02-10T10:51:20.694Z,34.40
2018-02-10T10:53:47.654Z,35.60
2018-02-10T10:56:14.551Z,31.50
2018-02-10T10:58:40.731Z,38.55
2018-02-10T11:01:07.682Z,38.95
2018-02-10T11:03:34.583Z,46.25
2018-02-10T11:06:00.776Z,35.85
2018-02-10T11:08:27.025Z,41.83
2018-02-10T11:10:53.296Z,37.22
2018-02-10T11:13:20.205Z,34.95
2018-02-10T11:15:46.429Z,33.42
2018-02-10T11:18:12.673Z,32.00
2018-02-10T11:20:38.899Z,33.92
2018-02-10T11:23:05.091Z,32.33
2018-02-10T11:25:31.611Z,32.70
2018-02-10T11:27:58.166Z,33.53
2018-02-10T11:30:24.342Z,32.08
2018-02-10T11:32:50.516Z,31.37
2018-02-10T11:35:16.778Z,32.23
2018-02-10T11:37:43.795Z,35.97
2018-02-10T11:40:09.997Z,37.25
2018-02-10T11:42:36.944Z,30.75
2018-02-10T11:45:03.930Z,33.35
2018-02-10T11:47:30.184Z,30.65
2018-02-10T11:49:56.375Z,33.60
2018-02-10T11:52:23.001Z,31.02
2018-02-10T11:54:49.208Z,34.42
2018-02-10T11:57:15.487Z,34.15
2018-02-10T11:59:42.717Z,36.08
2018-02-10T12:02:09.288Z,37.67
2018-02-10T12:04:36.240Z,34.95
2018-02-10T12:07:03.465Z,34.05
2018-02-10T12:19:14.719Z,26.08
2018-02-10T12:21:40.902Z,31.35
2018-02-10T12:24:07.610Z,28.30
2018-02-10T12:26:33.823Z,27.45
2018-02-10T12:29:00.049Z,31.80
2018-02-10T12:31:27.978Z,25.60
2018-02-10T12:33:54.178Z,19.20
2018-02-10T12:36:20.398Z,19.93
2018-02-10T12:38:46.627Z,15.50
2018-02-10T12:41:12.902Z,17.83
2018-02-10T12:43:48.227Z,19.53
2018-02-10T12:46:15.233Z,15.63
2018-02-10T12:51:39.644Z,16.07
2018-02-10T12:54:06.682Z,15.07
2018-02-10T12:56:32.928Z,17.10
2018-02-10T12:58:59.152Z,16.37
2018-02-10T13:01:25.340Z,16.80
2018-02-10T13:03:51.919Z,12.80
2018-02-10T13:06:18.541Z,20.53
2018-02-10T13:08:44.817Z,16.57
2018-02-10T13:11:12.607Z,12.00
2018-02-10T13:13:38.841Z,12.67
2018-02-10T13:16:05.346Z,15.83
2018-02-10T13:18:31.940Z,14.10
2018-02-10T13:20:58.225Z,11.30
2018-02-10T13:23:25.199Z,12.90
2018-02-10T13:25:51.477Z,12.32
2018-02-10T13:28:17.717Z,14.63
2018-02-10T13:30:44.780Z,15.10
2018-02-10T13:43:02.892Z,15.50
2018-02-10T13:45:29.302Z,18.75
2018-02-10T13:57:40.568Z,16.37
2018-02-10T14:00:07.558Z,15.02
2018-02-10T14:02:36.818Z,16.57
2018-02-10T14:05:03.760Z,14.93
2018-02-10T14:07:29.961Z,15.10
2018-02-10T14:09:56.200Z,14.10
2018-02-10T14:12:22.506Z,15.37
2018-02-10T14:14:48.754Z,12.63
2018-02-10T14:17:15.051Z,13.07
2018-02-10T14:19:41.256Z,14.10
2018-02-10T14:22:08.642Z,14.77
2018-02-10T14:24:34.892Z,14.43
2018-02-10T14:27:01.155Z,13.17
2018-02-10T14:29:28.144Z,16.70
2018-02-10T14:31:54.349Z,15.63
2018-02-10T14:34:21.296Z,16.47
2018-02-10T14:36:47.456Z,14.90
2018-02-10T14:39:14.498Z,14.07
2018-02-10T14:41:41.084Z,14.77
2018-02-10T14:44:08.306Z,14.15
2018-02-10T14:46:35.360Z,21.20
2018-02-10T14:49:02.394Z,21.37
2018-02-10T14:51:28.651Z,18.27
2018-02-10T14:53:54.895Z,15.63
2018-02-10T14:56:21.871Z,14.87
2018-02-10T14:58:48.047Z,17.80
2018-02-10T15:01:14.247Z,14.63
2018-02-10T15:03:40.424Z,17.97
2018-02-10T15:06:08.312Z,17.90
2018-02-10T15:08:35.219Z,13.67
2018-02-10T15:11:01.446Z,15.43
2018-02-10T15:13:27.689Z,16.73
2018-02-10T15:15:54.039Z,15.27
2018-02-10T15:18:20.995Z,15.70
2018-02-10T15:20:47.218Z,17.60
2018-02-10T15:23:14.201Z,14.93
2018-02-10T15:25:40.398Z,15.23
2018-02-10T15:28:07.494Z,22.17
2018-02-10T15:30:46.099Z,21.00
2018-02-10T15:33:24.579Z,21.70
2018-02-10T15:35:51.520Z,17.30
2018-02-10T15:38:18.483Z,18.03
2018-02-10T15:40:45.507Z,21.43
2018-02-10T15:43:12.481Z,18.40
2018-02-10T15:45:38.653Z,18.53
2018-02-10T15:48:04.949Z,18.03
2018-02-10T15:50:31.218Z,19.53
2018-02-10T15:52:57.472Z,21.93
2018-02-10T15:55:24.385Z,19.92
2018-02-10T15:57:50.713Z,19.37
2018-02-10T16:00:16.899Z,19.53
2018-02-10T16:02:43.869Z,19.93
2018-02-10T16:05:10.107Z,22.60
2018-02-10T16:07:36.398Z,20.37
2018-02-10T16:10:03.353Z,22.13
2018-02-10T16:12:29.539Z,25.50
2018-02-10T16:14:55.731Z,18.70
2018-02-10T16:17:21.957Z,23.27
2018-02-10T16:19:48.161Z,20.50
2018-02-10T16:22:15.143Z,23.00
2018-02-10T16:37:41.432Z,24.92
2018-02-10T16:40:08.192Z,21.00
2018-02-10T16:42:34.463Z,21.60
2018-02-10T16:45:00.679Z,24.60
2018-02-10T16:47:26.945Z,38.17
2018-02-10T16:49:53.876Z,23.48
2018-02-10T16:52:20.159Z,31.30
2018-02-10T16:54:46.416Z,26.27
2018-02-10T16:57:13.387Z,29.40
2018-02-10T16:59:39.601Z,28.37
2018-02-10T17:02:05.885Z,29.17
2018-02-10T17:04:32.154Z,29.83
2018-02-10T17:06:58.364Z,28.53
2018-02-10T17:09:24.576Z,28.98
2018-02-10T17:11:51.442Z,22.80
2018-02-10T17:14:17.706Z,27.50
2018-02-10T17:16:43.930Z,29.70
2018-02-10T17:19:10.984Z,26.77
2018-02-10T17:21:37.933Z,29.37
2018-02-10T17:24:04.125Z,25.43
2018-02-10T17:26:31.486Z,32.10
2018-02-10T17:28:57.734Z,31.37
2018-02-10T17:31:24.290Z,36.28
2018-02-10T17:33:51.624Z,34.80
2018-02-10T17:36:17.879Z,27.10
2018-02-10T17:38:44.812Z,31.45
2018-02-10T17:41:11.050Z,38.08
2018-02-10T17:43:37.994Z,36.47
2018-02-10T17:46:05.261Z,35.22
2018-02-10T17:48:31.411Z,31.95
2018-02-10T17:50:57.610Z,30.50
2018-02-10T17:53:24.547Z,30.88
2018-02-10T17:55:51.098Z,32.95
2018-02-10T17:58:17.301Z,30.65
2018-02-10T18:00:43.489Z,28.07
2018-02-10T18:03:09.666Z,33.65
2018-02-10T18:05:36.562Z,27.40
2018-02-10T18:08:02.755Z,30.48
2018-02-10T18:10:29.743Z,28.02
2018-02-10T18:12:55.898Z,31.55
2018-02-10T18:15:22.058Z,31.20
2018-02-10T18:17:48.999Z,33.22
2018-02-10T18:20:15.950Z,31.27
2018-02-10T18:22:42.874Z,36.70
2018-02-10T18:25:10.169Z,36.22
2018-02-10T18:27:36.412Z,36.10
2018-02-10T18:30:02.627Z,44.20
2018-02-10T18:32:28.828Z,41.70
2018-02-10T18:34:55.048Z,33.60
2018-02-10T18:37:21.645Z,31.67
2018-02-10T18:39:47.871Z,35.60
2018-02-10T18:42:14.079Z,30.75
2018-02-10T18:44:40.302Z,33.50
2018-02-10T18:47:06.501Z,31.83
2018-02-10T18:49:33.462Z,33.22
2018-02-10T18:52:00.404Z,28.27
2018-02-10T18:54:27.348Z,37.08
2018-02-10T18:56:54.866Z,34.80
2018-02-10T18:59:21.338Z,35.50
2018-02-10T19:01:48.301Z,35.05
2018-02-10T19:04:14.527Z,32.88
2018-02-10T19:06:41.442Z,31.92
2018-02-10T19:09:07.635Z,35.05
2018-02-10T19:11:33.797Z,34.27
2018-02-10T19:14:00.024Z,29.33
2018-02-10T19:16:27.061Z,29.10
2018-02-10T19:18:54.195Z,31.60
2018-02-10T19:21:20.431Z,34.00
2018-02-10T19:23:46.639Z,35.77
2018-02-10T19:26:12.819Z,35.47
2018-02-10T19:28:38.990Z,29.20
2018-02-10T19:31:05.365Z,28.50
2018-02-10T19:33:31.560Z,32.90
2018-02-10T19:35:58.197Z,30.98
2018-02-10T19:38:24.393Z,30.62
2018-02-10T19:40:51.355Z,32.53
2018-02-10T19:43:17.533Z,35.28
2018-02-10T19:45:44.104Z,29.80
2018-02-10T19:48:11.110Z,31.70
2018-02-10T19:50:37.352Z,31.75
2018-02-10T19:53:04.389Z,33.17
2018-02-10T19:55:30.745Z,34.03
2018-02-10T19:57:57.683Z,34.05
2018-02-10T20:00:23.907Z,38.42
2018-02-10T20:02:50.831Z,33.83
2018-02-10T20:05:17.821Z,34.75
2018-02-10T20:07:44.806Z,36.13
2018-02-10T20:10:11.158Z,39.28
2018-02-10T20:12:37.347Z,34.30
2018-02-10T20:15:03.571Z,33.10
2018-02-10T20:17:32.195Z,34.30
2018-02-10T20:19:58.995Z,38.80
2018-02-10T20:22:27.762Z,38.08
2018-02-10T20:24:54.726Z,38.65
2018-02-10T20:27:22.230Z,39.53
2018-02-10T20:29:48.494Z,35.85
2018-02-10T20:32:15.908Z,34.78
2018-02-10T20:34:57.081Z,34.05
2018-02-10T20:37:23.323Z,34.00
2018-02-10T20:39:49.651Z,35.47
2018-02-10T20:42:15.853Z,36.35
2018-02-10T20:44:42.067Z,36.15
2018-02-10T20:47:08.301Z,28.67
2018-02-10T20:49:34.530Z,32.13
2018-02-10T20:52:00.775Z,39.78
2018-02-10T20:54:27.002Z,33.22
2018-02-10T20:56:53.222Z,29.60
2018-02-10T20:59:19.399Z,29.80
2018-02-10T21:01:46.004Z,31.35
2018-02-10T21:04:12.277Z,31.10
2018-02-10T21:06:39.150Z,27.23
2018-02-10T21:09:06.218Z,31.48
2018-02-10T21:11:32.491Z,28.45
2018-02-10T21:13:58.926Z,28.30
2018-02-10T21:16:27.369Z,26.27
2018-02-10T21:18:53.589Z,23.62
2018-02-10T21:21:19.799Z,29.05
2018-02-10T21:23:46.784Z,25.92
2018-02-10T21:26:12.988Z,26.25
2018-02-10T21:28:39.160Z,28.95
2018-02-10T21:31:05.415Z,24.12
2018-02-10T21:33:31.714Z,28.02
2018-02-10T21:35:57.904Z,32.03
2018-02-10T21:38:24.114Z,27.25
2018-02-10T21:40:51.062Z,28.70
2018-02-10T21:43:19.076Z,26.00
2018-02-10T21:45:45.338Z,27.13
2018-02-10T21:48:11.579Z,27.80
2018-02-10T21:50:37.806Z,27.65
2018-02-10T21:53:04.003Z,26.33
2018-02-10T21:55:30.252Z,23.20
2018-02-10T21:57:56.501Z,27.75
2018-02-10T22:00:23.424Z,23.80
2018-02-10T22:02:49.665Z,22.05
2018-02-10T22:05:15.866Z,21.98
2018-02-10T22:07:42.084Z,24.02
2018-02-10T22:10:08.342Z,23.08
2018-02-10T22:12:34.566Z,19.17
2018-02-10T22:15:00.754Z,22.20
2018-02-10T22:17:26.922Z,19.95
2018-02-10T22:19:54.011Z,20.30
2018-02-10T22:22:20.571Z,20.20
2018-02-10T22:24:46.768Z,22.70
2018-02-10T22:27:13.710Z,21.65
2018-02-10T22:29:40.633Z,20.12
2018-02-10T22:32:07.759Z,22.13
2018-02-10T22:34:33.931Z,21.50
2018-02-10T22:37:01.623Z,16.17
2018-02-10T22:39:27.875Z,20.10
2018-02-10T22:41:54.077Z,15.43
2018-02-10T22:44:20.761Z,17.90
2018-02-10T22:46:46.957Z,20.23
2018-02-10T22:49:13.133Z,20.83
2018-02-10T22:51:39.298Z,18.17
2018-02-10T22:54:05.474Z,22.17
2018-02-10T22:56:32.604Z,23.73
2018-02-10T22:58:58.931Z,14.02
2018-02-10T23:01:25.090Z,19.62
2018-02-10T23:03:51.315Z,17.02
2018-02-10T23:06:17.612Z,17.00
2018-02-10T23:08:43.803Z,20.95
2018-02-10T23:11:10.806Z,21.95
2018-02-10T23:13:37.009Z,19.48
2018-02-10T23:16:03.195Z,16.17
2018-02-10T23:18:29.384Z,18.10
2018-02-10T23:20:55.554Z,19.27
2018-02-10T23:23:22.533Z,20.60
2018-02-10T23:25:48.706Z,17.77
2018-02-10T23:28:14.889Z,19.73
2018-02-10T23:30:41.100Z,23.95
2018-02-10T23:33:08.010Z,17.08
2018-02-10T23:35:34.237Z,19.17
2018-02-10T23:38:00.495Z,23.67
2018-02-10T23:40:26.658Z,16.77
2018-02-10T23:42:52.854Z,19.67
2018-02-10T23:45:19.846Z,18.75
2018-02-10T23:48:00.950Z,19.50
2018-02-10T23:50:27.140Z,20.25
2018-02-10T23:52:53.313Z,19.98
2018-02-10T23:55:19.498Z,21.50
2018-02-10T23:57:45.712Z,21.60
